Detall de PIREP

Printer-friendly versionPDF version

[2017/09/17 09:47:00]
Flight IATA:CT2108
Pilot Number:042
Company ICAO:CAT
Aircraft Type:B738/F
PAX:95
Departing Airport: LEVC
Destination Airport: LEMG
Alternate Airport:LEPA
Online: VATSIM
Route:ASTRO UM985 VIBAS
Flight Level:F310
No Slew and time accel
No pause
Crash detect
Detect pilot in Cockpit between each 30 and 45 minutes
09:47 Zero fuel Weight: 121806 Lbs, Fuel Weight: 46056 Lbs
09:47 VATSIM:LEVC 170930Z VRB01KT 9999 FEW020 22/13 Q1019 NOSIG
09:47 VATSIM:LEMG 170930Z 10005KT 040V160 CAVOK 22/14 Q1019 NOSIG
10:02 Parking Brakes off
10:10 Take-off
10:10 Take off Weight: 167032 Lbs
10:10 Wind: 124º @ 001 Knots Heading: 295º
10:10 POS N39º 29´ 37´´ W000º 29´ 36´´
10:10 Flaps:4 at 174 Knots
10:10 Gear Up: 173 Knots
10:10 Flaps:3 at 177 Knots
10:10 Flaps:2 at 185 Knots
10:10 Flaps:1 at 190 Knots
10:11 Flaps:0 at 233 Knots
10:25 Wind:269º@038 Knots Heading: 234º Ground Speed: 434 Knots Altitude 27985 ft
10:27 TOC
10:27 Fuel Weight: 41499 Lb
10:34 TOD
10:34 Fuel Weight: 40731 Lb
10:40 Wind:270º@030 Knots Heading: 229º Ground Speed: 357 Knots Altitude 22870 ft
10:53 Flaps:1 at 246 Knots
10:53 Flaps:2 at 242 Knots
10:55 Wind:230º@004 Knots Heading: 162º Ground Speed: 208 Knots Altitude 5052 ft
10:56 Flaps:3 at 201 Knots
10:56 Gear Down: 198 Knots
10:56 Flaps:4 at 191 Knots
10:57 Flaps:5 at 183 Knots
10:57 Flaps:6 at 179 Knots
10:57 Flaps:7 at 170 Knots
10:58 Flaps:8 at 149 Knots
11:00 TouchDown:Rate -89 ft/min Speed: 146 Knots
11:00 VATSIM:LEMG 171030Z 12006KT 070V170 CAVOK 22/15 Q1019 NOSIG
11:00 Land
11:00 Wind:131º@006 Knots
11:00 Heading: 131º
11:00 Flight Duration: 00:50
11:00 Landing Weight: 161415 Lbs
11:00 POS N36º 40´ 33´´ W004º 30´ 02´´
11:03 Parking brakes on
11:03 Block to Block Duration: 01:01
11:03 Final Fuel: 39358 Lbls
11:03 Spent Fuel: 6697 Lbls
11:03 Flight Length: 279 NM
11:03 TOD Land Length: 125 NM

Exportar CSV

Powered by Drupal - Modified by Danger4k